sensor_id;sensor_type;location;lat;lon;timestamp;P1;durP1;ratioP1;P2;durP2;ratioP2
66487;SDS011;53304;54.550;18.526;2022-11-20T00:01:12;8.80;;;4.90;;
66487;SDS011;53304;54.550;18.526;2022-11-20T00:03:39;8.07;;;5.03;;
66487;SDS011;53304;54.550;18.526;2022-11-20T00:06:10;6.95;;;4.43;;
66487;SDS011;53304;54.550;18.526;2022-11-20T00:08:40;9.10;;;5.03;;
66487;SDS011;53304;54.550;18.526;2022-11-20T00:11:06;9.20;;;4.82;;
66487;SDS011;53304;54.550;18.526;2022-11-20T00:13:33;7.93;;;4.78;;
66487;SDS011;53304;54.550;18.526;2022-11-20T00:15:59;8.45;;;5.25;;
66487;SDS011;53304;54.550;18.526;2022-11-20T00:18:29;8.55;;;5.10;;
66487;SDS011;53304;54.550;18.526;2022-11-20T00:21:03;9.07;;;5.20;;
66487;SDS011;53304;54.550;18.526;2022-11-20T00:23:30;10.60;;;5.25;;
66487;SDS011;53304;54.550;18.526;2022-11-20T00:25:56;10.25;;;5.43;;
66487;SDS011;53304;54.550;18.526;2022-11-20T00:28:21;9.10;;;5.22;;
66487;SDS011;53304;54.550;18.526;2022-11-20T00:30:47;10.05;;;5.25;;
66487;SDS011;53304;54.550;18.526;2022-11-20T00:33:14;9.30;;;5.22;;
66487;SDS011;53304;54.550;18.526;2022-11-20T00:35:40;10.73;;;5.70;;
66487;SDS011;53304;54.550;18.526;2022-11-20T00:38:05;10.68;;;5.68;;
66487;SDS011;53304;54.550;18.526;2022-11-20T00:40:30;10.55;;;5.60;;
66487;SDS011;53304;54.550;18.526;2022-11-20T00:42:58;10.18;;;5.15;;
66487;SDS011;53304;54.550;18.526;2022-11-20T00:45:28;8.43;;;4.78;;
66487;SDS011;53304;54.550;18.526;2022-11-20T00:47:56;8.75;;;5.47;;
66487;SDS011;53304;54.550;18.526;2022-11-20T00:50:24;8.15;;;4.93;;
66487;SDS011;53304;54.550;18.526;2022-11-20T00:52:49;9.65;;;5.70;;
66487;SDS011;53304;54.550;18.526;2022-11-20T00:55:17;11.68;;;5.65;;
66487;SDS011;53304;54.550;18.526;2022-11-20T00:57:42;10.57;;;5.97;;
66487;SDS011;53304;54.550;18.526;2022-11-20T01:00:10;9.73;;;5.50;;
66487;SDS011;53304;54.550;18.526;2022-11-20T01:02:35;10.07;;;5.85;;
66487;SDS011;53304;54.550;18.526;2022-11-20T01:05:03;8.73;;;5.43;;
66487;SDS011;53304;54.550;18.526;2022-11-20T01:07:33;8.43;;;5.45;;
66487;SDS011;53304;54.550;18.526;2022-11-20T01:09:59;10.48;;;5.75;;
66487;SDS011;53304;54.550;18.526;2022-11-20T01:12:26;9.63;;;5.60;;
66487;SDS011;53304;54.550;18.526;2022-11-20T01:14:54;8.45;;;5.38;;
66487;SDS011;53304;54.550;18.526;2022-11-20T01:17:22;8.77;;;5.32;;
66487;SDS011;53304;54.550;18.526;2022-11-20T01:19:50;9.65;;;5.68;;
66487;SDS011;53304;54.550;18.526;2022-11-20T01:22:18;9.55;;;5.50;;
66487;SDS011;53304;54.550;18.526;2022-11-20T01:24:44;10.50;;;5.25;;
66487;SDS011;53304;54.550;18.526;2022-11-20T01:27:16;9.20;;;5.47;;
66487;SDS011;53304;54.550;18.526;2022-11-20T01:29:44;10.23;;;5.60;;
66487;SDS011;53304;54.550;18.526;2022-11-20T01:32:10;10.10;;;5.80;;
66487;SDS011;53304;54.550;18.526;2022-11-20T01:34:35;9.68;;;5.72;;
66487;SDS011;53304;54.550;18.526;2022-11-20T01:37:03;9.40;;;5.53;;
66487;SDS011;53304;54.550;18.526;2022-11-20T01:39:30;10.38;;;5.63;;
66487;SDS011;53304;54.550;18.526;2022-11-20T01:41:56;10.32;;;5.60;;
66487;SDS011;53304;54.550;18.526;2022-11-20T01:44:45;9.57;;;5.50;;
66487;SDS011;53304;54.550;18.526;2022-11-20T01:47:16;10.18;;;5.43;;
66487;SDS011;53304;54.550;18.526;2022-11-20T01:50:01;10.23;;;5.88;;
66487;SDS011;53304;54.550;18.526;2022-11-20T01:55:31;10.18;;;5.70;;
66487;SDS011;53304;54.550;18.526;2022-11-20T01:57:58;9.07;;;5.47;;
66487;SDS011;53304;54.550;18.526;2022-11-20T02:03:26;9.48;;;5.72;;
66487;SDS011;53304;54.550;18.526;2022-11-20T02:06:04;10.43;;;5.82;;
66487;SDS011;53304;54.550;18.526;2022-11-20T02:08:35;10.85;;;5.93;;
66487;SDS011;53304;54.550;18.526;2022-11-20T02:11:01;11.40;;;6.60;;
66487;SDS011;53304;54.550;18.526;2022-11-20T02:13:31;10.13;;;5.70;;
66487;SDS011;53304;54.550;18.526;2022-11-20T02:16:56;12.30;;;6.47;;
66487;SDS011;53304;54.550;18.526;2022-11-20T02:19:02;10.23;;;5.95;;
66487;SDS011;53304;54.550;18.526;2022-11-20T02:24:02;10.77;;;6.00;;
66487;SDS011;53304;54.550;18.526;2022-11-20T02:29:08;9.95;;;5.50;;
66487;SDS011;53304;54.550;18.526;2022-11-20T02:31:37;10.60;;;5.85;;
66487;SDS011;53304;54.550;18.526;2022-11-20T02:34:08;9.48;;;5.80;;
66487;SDS011;53304;54.550;18.526;2022-11-20T02:36:36;11.73;;;6.30;;
66487;SDS011;53304;54.550;18.526;2022-11-20T02:39:06;10.32;;;6.43;;
66487;SDS011;53304;54.550;18.526;2022-11-20T02:41:35;9.82;;;6.30;;
66487;SDS011;53304;54.550;18.526;2022-11-20T02:44:04;10.45;;;6.30;;
66487;SDS011;53304;54.550;18.526;2022-11-20T02:46:30;10.70;;;6.18;;
66487;SDS011;53304;54.550;18.526;2022-11-20T02:49:00;11.05;;;6.38;;
66487;SDS011;53304;54.550;18.526;2022-11-20T02:51:26;12.15;;;6.13;;
66487;SDS011;53304;54.550;18.526;2022-11-20T02:53:51;9.55;;;5.80;;
66487;SDS011;53304;54.550;18.526;2022-11-20T02:56:17;9.95;;;6.25;;
66487;SDS011;53304;54.550;18.526;2022-11-20T02:58:44;9.93;;;5.78;;
66487;SDS011;53304;54.550;18.526;2022-11-20T03:01:14;10.80;;;5.80;;
66487;SDS011;53304;54.550;18.526;2022-11-20T03:03:40;11.10;;;6.15;;
66487;SDS011;53304;54.550;18.526;2022-11-20T03:06:07;10.32;;;6.80;;
66487;SDS011;53304;54.550;18.526;2022-11-20T03:08:35;10.63;;;6.05;;
66487;SDS011;53304;54.550;18.526;2022-11-20T03:11:04;11.20;;;6.07;;
66487;SDS011;53304;54.550;18.526;2022-11-20T03:13:33;11.77;;;6.18;;
66487;SDS011;53304;54.550;18.526;2022-11-20T03:16:09;10.15;;;6.50;;
66487;SDS011;53304;54.550;18.526;2022-11-20T03:18:45;8.43;;;5.85;;
66487;SDS011;53304;54.550;18.526;2022-11-20T03:21:14;10.32;;;5.82;;
66487;SDS011;53304;54.550;18.526;2022-11-20T03:23:42;10.07;;;6.18;;
66487;SDS011;53304;54.550;18.526;2022-11-20T03:26:11;10.18;;;5.97;;
66487;SDS011;53304;54.550;18.526;2022-11-20T03:28:42;10.18;;;6.03;;
66487;SDS011;53304;54.550;18.526;2022-11-20T03:31:13;9.88;;;6.40;;
66487;SDS011;53304;54.550;18.526;2022-11-20T03:33:41;10.77;;;6.22;;
66487;SDS011;53304;54.550;18.526;2022-11-20T03:36:08;10.75;;;6.45;;
66487;SDS011;53304;54.550;18.526;2022-11-20T03:38:39;13.77;;;6.57;;
66487;SDS011;53304;54.550;18.526;2022-11-20T03:41:06;9.68;;;6.18;;
66487;SDS011;53304;54.550;18.526;2022-11-20T03:43:41;11.20;;;5.97;;
66487;SDS011;53304;54.550;18.526;2022-11-20T03:46:13;10.48;;;6.32;;
66487;SDS011;53304;54.550;18.526;2022-11-20T03:48:39;10.55;;;6.15;;
66487;SDS011;53304;54.550;18.526;2022-11-20T03:51:14;10.73;;;6.55;;
66487;SDS011;53304;54.550;18.526;2022-11-20T03:53:46;10.13;;;6.30;;
66487;SDS011;53304;54.550;18.526;2022-11-20T03:56:16;9.40;;;5.90;;
66487;SDS011;53304;54.550;18.526;2022-11-20T03:58:43;10.20;;;6.30;;
66487;SDS011;53304;54.550;18.526;2022-11-20T04:01:12;9.88;;;6.00;;
66487;SDS011;53304;54.550;18.526;2022-11-20T04:03:39;10.65;;;6.50;;
66487;SDS011;53304;54.550;18.526;2022-11-20T04:06:17;11.13;;;6.10;;
66487;SDS011;53304;54.550;18.526;2022-11-20T04:08:49;10.38;;;6.43;;
66487;SDS011;53304;54.550;18.526;2022-11-20T04:11:15;10.65;;;6.15;;
66487;SDS011;53304;54.550;18.526;2022-11-20T04:13:45;9.57;;;6.25;;
66487;SDS011;53304;54.550;18.526;2022-11-20T04:16:12;10.23;;;6.03;;
66487;SDS011;53304;54.550;18.526;2022-11-20T04:18:37;10.18;;;6.20;;
66487;SDS011;53304;54.550;18.526;2022-11-20T04:21:05;10.80;;;6.47;;
66487;SDS011;53304;54.550;18.526;2022-11-20T04:23:33;10.77;;;6.72;;
66487;SDS011;53304;54.550;18.526;2022-11-20T04:26:06;10.35;;;6.43;;
66487;SDS011;53304;54.550;18.526;2022-11-20T04:28:33;9.77;;;6.57;;
66487;SDS011;53304;54.550;18.526;2022-11-20T04:31:06;10.18;;;6.55;;
66487;SDS011;53304;54.550;18.526;2022-11-20T04:33:37;11.23;;;6.60;;
66487;SDS011;53304;54.550;18.526;2022-11-20T04:36:10;11.68;;;6.80;;
66487;SDS011;53304;54.550;18.526;2022-11-20T04:38:40;11.88;;;6.30;;
66487;SDS011;53304;54.550;18.526;2022-11-20T04:41:13;9.90;;;6.47;;
66487;SDS011;53304;54.550;18.526;2022-11-20T04:43:45;10.98;;;6.55;;
66487;SDS011;53304;54.550;18.526;2022-11-20T04:46:14;10.50;;;6.83;;
66487;SDS011;53304;54.550;18.526;2022-11-20T04:48:43;9.88;;;6.38;;
66487;SDS011;53304;54.550;18.526;2022-11-20T04:51:08;11.32;;;6.68;;
66487;SDS011;53304;54.550;18.526;2022-11-20T04:53:34;11.30;;;6.55;;
66487;SDS011;53304;54.550;18.526;2022-11-20T04:56:00;10.70;;;6.60;;
66487;SDS011;53304;54.550;18.526;2022-11-20T04:58:28;10.35;;;6.82;;
66487;SDS011;53304;54.550;18.526;2022-11-20T05:00:54;10.30;;;6.38;;
66487;SDS011;53304;54.550;18.526;2022-11-20T05:03:28;9.88;;;6.32;;
66487;SDS011;53304;54.550;18.526;2022-11-20T05:05:56;10.48;;;6.68;;
66487;SDS011;53304;54.550;18.526;2022-11-20T05:08:24;10.63;;;6.60;;
66487;SDS011;53304;54.550;18.526;2022-11-20T05:10:49;10.73;;;6.72;;
66487;SDS011;53304;54.550;18.526;2022-11-20T05:13:20;10.77;;;6.45;;
66487;SDS011;53304;54.550;18.526;2022-11-20T05:15:45;10.68;;;6.72;;
66487;SDS011;53304;54.550;18.526;2022-11-20T05:18:10;10.75;;;7.15;;
66487;SDS011;53304;54.550;18.526;2022-11-20T05:20:36;10.45;;;6.43;;
66487;SDS011;53304;54.550;18.526;2022-11-20T05:23:09;11.25;;;7.05;;
66487;SDS011;53304;54.550;18.526;2022-11-20T05:25:37;11.02;;;6.70;;
66487;SDS011;53304;54.550;18.526;2022-11-20T05:28:02;10.57;;;6.47;;
66487;SDS011;53304;54.550;18.526;2022-11-20T05:30:35;11.02;;;6.70;;
66487;SDS011;53304;54.550;18.526;2022-11-20T05:33:00;9.98;;;6.43;;
66487;SDS011;53304;54.550;18.526;2022-11-20T05:35:25;10.18;;;6.22;;
66487;SDS011;53304;54.550;18.526;2022-11-20T05:37:51;11.57;;;6.80;;
66487;SDS011;53304;54.550;18.526;2022-11-20T05:40:16;11.00;;;6.80;;
66487;SDS011;53304;54.550;18.526;2022-11-20T05:42:41;11.32;;;6.90;;
66487;SDS011;53304;54.550;18.526;2022-11-20T05:45:09;10.90;;;6.90;;
66487;SDS011;53304;54.550;18.526;2022-11-20T05:47:34;12.45;;;6.82;;
66487;SDS011;53304;54.550;18.526;2022-11-20T05:50:00;11.93;;;7.45;;
66487;SDS011;53304;54.550;18.526;2022-11-20T05:52:31;9.50;;;6.15;;
66487;SDS011;53304;54.550;18.526;2022-11-20T05:54:59;12.00;;;6.90;;
66487;SDS011;53304;54.550;18.526;2022-11-20T05:57:27;11.98;;;7.20;;
66487;SDS011;53304;54.550;18.526;2022-11-20T05:59:55;10.43;;;6.32;;
66487;SDS011;53304;54.550;18.526;2022-11-20T06:02:20;13.27;;;7.32;;
66487;SDS011;53304;54.550;18.526;2022-11-20T06:04:48;14.55;;;6.43;;
66487;SDS011;53304;54.550;18.526;2022-11-20T06:07:16;11.77;;;6.53;;
66487;SDS011;53304;54.550;18.526;2022-11-20T06:09:41;13.20;;;6.28;;
66487;SDS011;53304;54.550;18.526;2022-11-20T06:12:09;10.85;;;6.07;;
66487;SDS011;53304;54.550;18.526;2022-11-20T06:14:34;9.32;;;6.20;;
66487;SDS011;53304;54.550;18.526;2022-11-20T06:17:00;11.30;;;6.90;;
66487;SDS011;53304;54.550;18.526;2022-11-20T06:19:25;11.15;;;6.55;;
66487;SDS011;53304;54.550;18.526;2022-11-20T06:21:55;17.77;;;6.55;;
66487;SDS011;53304;54.550;18.526;2022-11-20T06:24:21;15.30;;;6.60;;
66487;SDS011;53304;54.550;18.526;2022-11-20T06:26:49;15.50;;;6.35;;
66487;SDS011;53304;54.550;18.526;2022-11-20T06:29:17;10.93;;;6.70;;
66487;SDS011;53304;54.550;18.526;2022-11-20T06:31:47;10.50;;;6.20;;
66487;SDS011;53304;54.550;18.526;2022-11-20T06:34:12;13.95;;;6.93;;
66487;SDS011;53304;54.550;18.526;2022-11-20T06:36:38;14.45;;;6.57;;
66487;SDS011;53304;54.550;18.526;2022-11-20T06:39:05;10.48;;;6.47;;
66487;SDS011;53304;54.550;18.526;2022-11-20T06:41:33;11.65;;;6.45;;
66487;SDS011;53304;54.550;18.526;2022-11-20T06:43:59;10.68;;;6.82;;
66487;SDS011;53304;54.550;18.526;2022-11-20T06:46:26;14.00;;;6.88;;
66487;SDS011;53304;54.550;18.526;2022-11-20T06:48:52;10.80;;;6.10;;
66487;SDS011;53304;54.550;18.526;2022-11-20T06:51:19;11.45;;;6.75;;
66487;SDS011;53304;54.550;18.526;2022-11-20T06:53:49;9.07;;;5.55;;
66487;SDS011;53304;54.550;18.526;2022-11-20T06:56:15;12.25;;;6.65;;
66487;SDS011;53304;54.550;18.526;2022-11-20T06:58:40;11.35;;;6.75;;
66487;SDS011;53304;54.550;18.526;2022-11-20T07:01:07;11.82;;;6.10;;
66487;SDS011;53304;54.550;18.526;2022-11-20T07:03:37;10.00;;;6.38;;
66487;SDS011;53304;54.550;18.526;2022-11-20T07:06:08;11.55;;;7.00;;
66487;SDS011;53304;54.550;18.526;2022-11-20T07:08:33;10.07;;;6.22;;
66487;SDS011;53304;54.550;18.526;2022-11-20T07:11:03;10.77;;;6.72;;
66487;SDS011;53304;54.550;18.526;2022-11-20T07:13:33;11.02;;;6.20;;
66487;SDS011;53304;54.550;18.526;2022-11-20T07:16:02;10.05;;;6.28;;
66487;SDS011;53304;54.550;18.526;2022-11-20T07:18:31;9.68;;;6.07;;
66487;SDS011;53304;54.550;18.526;2022-11-20T07:21:00;11.38;;;6.50;;
66487;SDS011;53304;54.550;18.526;2022-11-20T07:23:27;10.50;;;6.40;;
66487;SDS011;53304;54.550;18.526;2022-11-20T07:25:55;10.75;;;6.60;;
66487;SDS011;53304;54.550;18.526;2022-11-20T07:28:20;10.70;;;6.43;;
66487;SDS011;53304;54.550;18.526;2022-11-20T07:30:51;11.02;;;6.75;;
66487;SDS011;53304;54.550;18.526;2022-11-20T07:33:17;10.88;;;6.80;;
66487;SDS011;53304;54.550;18.526;2022-11-20T07:35:45;11.32;;;6.70;;
66487;SDS011;53304;54.550;18.526;2022-11-20T07:38:10;11.70;;;6.63;;
66487;SDS011;53304;54.550;18.526;2022-11-20T07:40:36;11.23;;;6.82;;
66487;SDS011;53304;54.550;18.526;2022-11-20T07:43:01;10.40;;;6.68;;
66487;SDS011;53304;54.550;18.526;2022-11-20T07:45:29;10.68;;;6.30;;
66487;SDS011;53304;54.550;18.526;2022-11-20T07:47:57;11.50;;;6.82;;
66487;SDS011;53304;54.550;18.526;2022-11-20T07:50:22;9.95;;;6.72;;
66487;SDS011;53304;54.550;18.526;2022-11-20T07:52:50;9.60;;;6.85;;
66487;SDS011;53304;54.550;18.526;2022-11-20T07:55:16;11.75;;;6.78;;
66487;SDS011;53304;54.550;18.526;2022-11-20T07:57:47;9.73;;;6.45;;
66487;SDS011;53304;54.550;18.526;2022-11-20T08:00:19;10.27;;;6.65;;
66487;SDS011;53304;54.550;18.526;2022-11-20T08:02:44;10.60;;;6.18;;
66487;SDS011;53304;54.550;18.526;2022-11-20T08:05:12;10.82;;;6.72;;
66487;SDS011;53304;54.550;18.526;2022-11-20T08:07:41;10.82;;;6.82;;
66487;SDS011;53304;54.550;18.526;2022-11-20T08:10:11;11.07;;;6.97;;
66487;SDS011;53304;54.550;18.526;2022-11-20T08:12:44;10.60;;;6.47;;
66487;SDS011;53304;54.550;18.526;2022-11-20T08:15:32;12.32;;;6.80;;
66487;SDS011;53304;54.550;18.526;2022-11-20T08:18:04;10.35;;;6.50;;
66487;SDS011;53304;54.550;18.526;2022-11-20T08:20:33;12.20;;;6.97;;
66487;SDS011;53304;54.550;18.526;2022-11-20T08:23:02;11.45;;;6.72;;
66487;SDS011;53304;54.550;18.526;2022-11-20T08:25:31;9.82;;;6.55;;
66487;SDS011;53304;54.550;18.526;2022-11-20T08:28:03;9.75;;;6.80;;
66487;SDS011;53304;54.550;18.526;2022-11-20T08:30:30;10.75;;;6.60;;
66487;SDS011;53304;54.550;18.526;2022-11-20T08:32:59;10.70;;;6.90;;
66487;SDS011;53304;54.550;18.526;2022-11-20T08:35:29;11.68;;;7.55;;
66487;SDS011;53304;54.550;18.526;2022-11-20T08:37:58;10.35;;;6.68;;
66487;SDS011;53304;54.550;18.526;2022-11-20T08:40:26;12.15;;;7.05;;
66487;SDS011;53304;54.550;18.526;2022-11-20T08:42:51;11.02;;;6.93;;
66487;SDS011;53304;54.550;18.526;2022-11-20T08:45:19;11.05;;;6.55;;
66487;SDS011;53304;54.550;18.526;2022-11-20T08:47:45;11.30;;;7.20;;
66487;SDS011;53304;54.550;18.526;2022-11-20T08:50:13;12.52;;;7.35;;
66487;SDS011;53304;54.550;18.526;2022-11-20T08:52:41;11.90;;;7.35;;
66487;SDS011;53304;54.550;18.526;2022-11-20T08:55:10;10.50;;;7.35;;
66487;SDS011;53304;54.550;18.526;2022-11-20T08:57:35;11.77;;;7.07;;
66487;SDS011;53304;54.550;18.526;2022-11-20T09:00:06;10.65;;;7.22;;
66487;SDS011;53304;54.550;18.526;2022-11-20T09:02:33;12.07;;;7.85;;
66487;SDS011;53304;54.550;18.526;2022-11-20T09:04:58;12.98;;;7.22;;
66487;SDS011;53304;54.550;18.526;2022-11-20T09:07:24;13.55;;;7.55;;
66487;SDS011;53304;54.550;18.526;2022-11-20T09:09:49;12.02;;;7.10;;
66487;SDS011;53304;54.550;18.526;2022-11-20T09:12:17;13.15;;;7.60;;
66487;SDS011;53304;54.550;18.526;2022-11-20T09:14:42;11.98;;;7.88;;
66487;SDS011;53304;54.550;18.526;2022-11-20T09:17:11;11.32;;;7.07;;
66487;SDS011;53304;54.550;18.526;2022-11-20T09:19:38;14.15;;;7.68;;
66487;SDS011;53304;54.550;18.526;2022-11-20T09:22:06;14.07;;;7.40;;
66487;SDS011;53304;54.550;18.526;2022-11-20T09:24:34;12.23;;;7.57;;
66487;SDS011;53304;54.550;18.526;2022-11-20T09:27:03;12.18;;;7.55;;
66487;SDS011;53304;54.550;18.526;2022-11-20T09:29:31;12.15;;;7.75;;
66487;SDS011;53304;54.550;18.526;2022-11-20T09:32:01;11.43;;;7.60;;
66487;SDS011;53304;54.550;18.526;2022-11-20T09:34:28;11.52;;;7.53;;
66487;SDS011;53304;54.550;18.526;2022-11-20T09:36:54;13.93;;;7.57;;
66487;SDS011;53304;54.550;18.526;2022-11-20T09:39:19;14.13;;;8.10;;
66487;SDS011;53304;54.550;18.526;2022-11-20T09:55:41;14.05;;;7.93;;
66487;SDS011;53304;54.550;18.526;2022-11-20T09:58:07;14.75;;;7.75;;
66487;SDS011;53304;54.550;18.526;2022-11-20T10:00:41;13.27;;;7.53;;
66487;SDS011;53304;54.550;18.526;2022-11-20T10:03:21;15.30;;;7.85;;
66487;SDS011;53304;54.550;18.526;2022-11-20T10:06:11;15.55;;;7.88;;
66487;SDS011;53304;54.550;18.526;2022-11-20T10:08:43;16.83;;;7.80;;
66487;SDS011;53304;54.550;18.526;2022-11-20T10:11:13;16.27;;;8.23;;
66487;SDS011;53304;54.550;18.526;2022-11-20T10:13:59;17.13;;;7.72;;
66487;SDS011;53304;54.550;18.526;2022-11-20T10:19:53;20.63;;;8.05;;
66487;SDS011;53304;54.550;18.526;2022-11-20T10:25:03;14.70;;;8.10;;
66487;SDS011;53304;54.550;18.526;2022-11-20T10:27:36;13.32;;;8.60;;
66487;SDS011;53304;54.550;18.526;2022-11-20T10:30:14;14.75;;;8.13;;
66487;SDS011;53304;54.550;18.526;2022-11-20T10:32:54;12.88;;;7.70;;
66487;SDS011;53304;54.550;18.526;2022-11-20T10:35:44;15.10;;;7.93;;
66487;SDS011;53304;54.550;18.526;2022-11-20T10:38:24;16.00;;;8.05;;
66487;SDS011;53304;54.550;18.526;2022-11-20T10:40:59;13.45;;;7.30;;
66487;SDS011;53304;54.550;18.526;2022-11-20T10:43:46;14.32;;;7.93;;
66487;SDS011;53304;54.550;18.526;2022-11-20T10:46:34;13.13;;;7.85;;
66487;SDS011;53304;54.550;18.526;2022-11-20T10:49:12;15.63;;;7.90;;
66487;SDS011;53304;54.550;18.526;2022-11-20T11:00:26;12.13;;;7.63;;
66487;SDS011;53304;54.550;18.526;2022-11-20T11:02:54;19.45;;;8.50;;
66487;SDS011;53304;54.550;18.526;2022-11-20T11:07:55;21.27;;;8.63;;
66487;SDS011;53304;54.550;18.526;2022-11-20T11:10:34;20.73;;;8.43;;
66487;SDS011;53304;54.550;18.526;2022-11-20T11:13:00;15.90;;;7.88;;
66487;SDS011;53304;54.550;18.526;2022-11-20T11:15:28;19.98;;;8.48;;
66487;SDS011;53304;54.550;18.526;2022-11-20T11:18:01;17.70;;;8.30;;
66487;SDS011;53304;54.550;18.526;2022-11-20T11:20:29;16.80;;;8.55;;
66487;SDS011;53304;54.550;18.526;2022-11-20T11:22:56;14.32;;;8.35;;
66487;SDS011;53304;54.550;18.526;2022-11-20T11:28:02;19.33;;;7.85;;
66487;SDS011;53304;54.550;18.526;2022-11-20T11:30:29;17.48;;;8.30;;
66487;SDS011;53304;54.550;18.526;2022-11-20T11:33:06;21.13;;;8.73;;
66487;SDS011;53304;54.550;18.526;2022-11-20T11:35:38;18.17;;;9.20;;
66487;SDS011;53304;54.550;18.526;2022-11-20T11:38:13;19.88;;;8.57;;
66487;SDS011;53304;54.550;18.526;2022-11-20T11:40:42;15.45;;;8.25;;
66487;SDS011;53304;54.550;18.526;2022-11-20T11:43:17;17.73;;;8.23;;
66487;SDS011;53304;54.550;18.526;2022-11-20T11:46:04;20.23;;;8.15;;
66487;SDS011;53304;54.550;18.526;2022-11-20T11:48:57;14.75;;;7.90;;
66487;SDS011;53304;54.550;18.526;2022-11-20T11:57:16;14.45;;;8.25;;
66487;SDS011;53304;54.550;18.526;2022-11-20T12:00:10;16.58;;;8.48;;
66487;SDS011;53304;54.550;18.526;2022-11-20T12:02:49;14.45;;;7.97;;
66487;SDS011;53304;54.550;18.526;2022-11-20T12:05:40;15.13;;;7.68;;
66487;SDS011;53304;54.550;18.526;2022-11-20T12:08:44;13.48;;;8.32;;
66487;SDS011;53304;54.550;18.526;2022-11-20T12:11:17;18.30;;;8.07;;
66487;SDS011;53304;54.550;18.526;2022-11-20T12:14:00;13.57;;;7.75;;
66487;SDS011;53304;54.550;18.526;2022-11-20T12:16:35;15.20;;;8.27;;
66487;SDS011;53304;54.550;18.526;2022-11-20T12:19:07;12.85;;;7.50;;
66487;SDS011;53304;54.550;18.526;2022-11-20T12:30:14;14.63;;;8.13;;
66487;SDS011;53304;54.550;18.526;2022-11-20T12:36:01;13.15;;;7.43;;
66487;SDS011;53304;54.550;18.526;2022-11-20T12:47:15;14.25;;;7.90;;
66487;SDS011;53304;54.550;18.526;2022-11-20T12:58:03;15.57;;;8.57;;
66487;SDS011;53304;54.550;18.526;2022-11-20T13:00:30;17.08;;;8.70;;
66487;SDS011;53304;54.550;18.526;2022-11-20T13:03:22;13.50;;;8.02;;
66487;SDS011;53304;54.550;18.526;2022-11-20T13:08:33;15.25;;;8.45;;
66487;SDS011;53304;54.550;18.526;2022-11-20T13:19:16;12.97;;;7.60;;
66487;SDS011;53304;54.550;18.526;2022-11-20T13:21:45;15.45;;;8.43;;
66487;SDS011;53304;54.550;18.526;2022-11-20T13:26:58;13.82;;;8.73;;
66487;SDS011;53304;54.550;18.526;2022-11-20T13:29:27;13.27;;;8.57;;
66487;SDS011;53304;54.550;18.526;2022-11-20T13:32:01;17.30;;;9.48;;
66487;SDS011;53304;54.550;18.526;2022-11-20T13:34:39;16.73;;;8.70;;
66487;SDS011;53304;54.550;18.526;2022-11-20T13:37:24;14.25;;;8.20;;
66487;SDS011;53304;54.550;18.526;2022-11-20T13:43:00;13.63;;;8.38;;
66487;SDS011;53304;54.550;18.526;2022-11-20T13:45:36;14.25;;;8.65;;
66487;SDS011;53304;54.550;18.526;2022-11-20T13:48:03;15.27;;;8.98;;
66487;SDS011;53304;54.550;18.526;2022-11-20T13:53:03;13.52;;;8.32;;
66487;SDS011;53304;54.550;18.526;2022-11-20T14:01:01;15.75;;;8.85;;
66487;SDS011;53304;54.550;18.526;2022-11-20T14:03:34;15.57;;;8.93;;
66487;SDS011;53304;54.550;18.526;2022-11-20T14:06:04;16.17;;;8.77;;
66487;SDS011;53304;54.550;18.526;2022-11-20T14:14:13;16.13;;;8.52;;
66487;SDS011;53304;54.550;18.526;2022-11-20T14:16:30;14.65;;;8.60;;
66487;SDS011;53304;54.550;18.526;2022-11-20T14:19:16;15.02;;;8.90;;
66487;SDS011;53304;54.550;18.526;2022-11-20T14:21:51;15.00;;;9.13;;
66487;SDS011;53304;54.550;18.526;2022-11-20T14:24:21;16.02;;;9.13;;
66487;SDS011;53304;54.550;18.526;2022-11-20T14:26:50;14.63;;;8.80;;
66487;SDS011;53304;54.550;18.526;2022-11-20T14:29:20;15.32;;;8.55;;
66487;SDS011;53304;54.550;18.526;2022-11-20T14:31:47;14.10;;;8.48;;
66487;SDS011;53304;54.550;18.526;2022-11-20T14:34:15;17.13;;;9.38;;
66487;SDS011;53304;54.550;18.526;2022-11-20T14:36:43;14.43;;;8.68;;
66487;SDS011;53304;54.550;18.526;2022-11-20T14:39:25;16.48;;;9.30;;
66487;SDS011;53304;54.550;18.526;2022-11-20T14:41:55;15.02;;;8.38;;
66487;SDS011;53304;54.550;18.526;2022-11-20T14:44:21;14.38;;;9.05;;
66487;SDS011;53304;54.550;18.526;2022-11-20T14:46:51;15.43;;;9.10;;
66487;SDS011;53304;54.550;18.526;2022-11-20T14:49:17;15.30;;;9.30;;
66487;SDS011;53304;54.550;18.526;2022-11-20T14:51:57;17.23;;;9.85;;
66487;SDS011;53304;54.550;18.526;2022-11-20T14:54:26;16.23;;;9.63;;
66487;SDS011;53304;54.550;18.526;2022-11-20T14:56:59;17.00;;;9.85;;
66487;SDS011;53304;54.550;18.526;2022-11-20T14:59:30;17.15;;;9.93;;
66487;SDS011;53304;54.550;18.526;2022-11-20T15:04:24;16.37;;;9.37;;
66487;SDS011;53304;54.550;18.526;2022-11-20T15:06:53;18.08;;;9.98;;
66487;SDS011;53304;54.550;18.526;2022-11-20T15:09:19;16.15;;;9.40;;
66487;SDS011;53304;54.550;18.526;2022-11-20T15:12:02;16.67;;;10.00;;
66487;SDS011;53304;54.550;18.526;2022-11-20T15:14:28;15.90;;;9.95;;
66487;SDS011;53304;54.550;18.526;2022-11-20T15:16:57;16.35;;;9.52;;
66487;SDS011;53304;54.550;18.526;2022-11-20T15:19:26;16.25;;;10.15;;
66487;SDS011;53304;54.550;18.526;2022-11-20T15:21:51;16.92;;;10.32;;
66487;SDS011;53304;54.550;18.526;2022-11-20T15:24:17;16.20;;;10.55;;
66487;SDS011;53304;54.550;18.526;2022-11-20T15:26:43;17.30;;;9.80;;
66487;SDS011;53304;54.550;18.526;2022-11-20T15:29:14;17.40;;;10.52;;
66487;SDS011;53304;54.550;18.526;2022-11-20T15:31:44;16.48;;;9.95;;
66487;SDS011;53304;54.550;18.526;2022-11-20T15:34:18;17.58;;;10.73;;
66487;SDS011;53304;54.550;18.526;2022-11-20T15:36:51;17.65;;;10.55;;
66487;SDS011;53304;54.550;18.526;2022-11-20T15:39:17;17.63;;;10.27;;
66487;SDS011;53304;54.550;18.526;2022-11-20T15:41:45;18.13;;;11.00;;
66487;SDS011;53304;54.550;18.526;2022-11-20T15:44:11;17.27;;;10.65;;
66487;SDS011;53304;54.550;18.526;2022-11-20T15:46:41;17.63;;;10.32;;
66487;SDS011;53304;54.550;18.526;2022-11-20T15:49:12;16.98;;;10.45;;
66487;SDS011;53304;54.550;18.526;2022-11-20T15:51:43;16.98;;;10.45;;
66487;SDS011;53304;54.550;18.526;2022-11-20T15:56:36;16.87;;;10.30;;
66487;SDS011;53304;54.550;18.526;2022-11-20T15:59:04;17.10;;;10.55;;
66487;SDS011;53304;54.550;18.526;2022-11-20T16:01:31;16.33;;;10.25;;
66487;SDS011;53304;54.550;18.526;2022-11-20T16:03:57;17.35;;;10.57;;
66487;SDS011;53304;54.550;18.526;2022-11-20T16:06:24;17.30;;;10.57;;
66487;SDS011;53304;54.550;18.526;2022-11-20T16:08:55;16.58;;;10.43;;
66487;SDS011;53304;54.550;18.526;2022-11-20T16:11:22;17.35;;;10.57;;
66487;SDS011;53304;54.550;18.526;2022-11-20T16:13:48;18.75;;;10.70;;
66487;SDS011;53304;54.550;18.526;2022-11-20T16:16:35;18.73;;;11.13;;
66487;SDS011;53304;54.550;18.526;2022-11-20T16:19:02;17.67;;;11.23;;
66487;SDS011;53304;54.550;18.526;2022-11-20T16:21:28;16.05;;;10.27;;
66487;SDS011;53304;54.550;18.526;2022-11-20T16:23:59;18.67;;;10.95;;
66487;SDS011;53304;54.550;18.526;2022-11-20T16:26:30;18.27;;;11.00;;
66487;SDS011;53304;54.550;18.526;2022-11-20T16:29:02;16.77;;;10.70;;
66487;SDS011;53304;54.550;18.526;2022-11-20T16:31:28;17.13;;;10.90;;
66487;SDS011;53304;54.550;18.526;2022-11-20T16:33:57;20.08;;;10.88;;